Terminal Aerodrome Forecast
Issued by NWS

Home | Current Version | Previous Version | Graphics & Text | Print | Product List | Glossary Off
Versions: 1 2 3 4 5 6 7 8 9 10 11 12 13 14 15 16 17 18 19 20 21 22 23 24 25 26 27 28 29 30 31 32 33 34 35 36 37 38 39 40

000
FTUS43 KDDC 290532
TAFGCK
TAF
KGCK 290532Z 2906/3006 06015G26KT P6SM -TSRA OVC045CB
     FM290700 06015G28KT P6SM TSRA OVC020CB
     FM291100 06015G27KT 3SM TSRA OVC003CB
     FM291300 07016KT 3SM SHRA OVC003
     FM292200 03016KT 3SM SHRA OVC003=

USA.gov is the U.S. government's official web portal to all federal, state and local government web resources and services.